Time;durP1;ratioP1;P1;durP2;ratioP2;P2;SDS_P1;SDS_P2;PMS_P1;PMS_P2;Temp;Humidity;BMP_temperature;BMP_pressure;BME280_temperature;BME280_humidity;BME280_pressure;Samples;Min_cycle;Max_cycle;Signal;HPM_P1;HPM_P2
2022/12/21 00:00:51;;;;;;;22.20;14.07;;;;;;;;;;5093109;28;20494;-62
2022/12/21 00:03:19;;;;;;;24.70;14.70;;;;;;;;;;5093363;28;20451;-62
2022/12/21 00:05:46;;;;;;;23.85;15.20;;;;;;;;;;5093355;28;20443;-62
2022/12/21 00:08:13;;;;;;;23.80;14.37;;;;;;;;;;5093377;28;20195;-62
2022/12/21 00:10:40;;;;;;;21.90;14.17;;;;;;;;;;5093287;28;20557;-62
2022/12/21 00:13:07;;;;;;;24.30;15.53;;;;;;;;;;5093343;28;20458;-62
2022/12/21 00:15:34;;;;;;;23.10;14.70;;;;;;;;;;5093039;28;20483;-62
2022/12/21 00:18:01;;;;;;;21.57;14.80;;;;;;;;;;5093130;28;20462;-62
2022/12/21 00:20:29;;;;;;;23.40;16.40;;;;;;;;;;5092941;28;20460;-62
2022/12/21 00:22:56;;;;;;;26.07;15.53;;;;;;;;;;5093063;28;20603;-62
2022/12/21 00:25:23;;;;;;;27.03;15.10;;;;;;;;;;5093239;28;20537;-62
2022/12/21 00:27:50;;;;;;;22.77;15.53;;;;;;;;;;5092746;28;20478;-62
2022/12/21 00:30:17;;;;;;;22.50;15.40;;;;;;;;;;5093061;28;20560;-62
2022/12/21 00:32:44;;;;;;;23.00;15.83;;;;;;;;;;5093061;28;20547;-62
2022/12/21 00:35:11;;;;;;;23.37;14.93;;;;;;;;;;5092556;28;20559;-62
2022/12/21 00:37:39;;;;;;;26.43;15.80;;;;;;;;;;5092764;28;20453;-62
2022/12/21 00:40:07;;;;;;;24.50;16.43;;;;;;;;;;5092656;28;20549;-62
2022/12/21 00:42:34;;;;;;;25.03;15.30;;;;;;;;;;5092709;28;20820;-62
2022/12/21 00:45:01;;;;;;;23.98;15.02;;;;;;;;;;5092858;28;20893;-62
2022/12/21 00:47:28;;;;;;;23.50;15.80;;;;;;;;;;5092695;28;20326;-62
2022/12/21 00:49:55;;;;;;;22.83;15.35;;;;;;;;;;5092930;28;20544;-62
2022/12/21 00:52:22;;;;;;;21.55;15.13;;;;;;;;;;5092606;28;20195;-62
2022/12/21 00:54:50;;;;;;;25.47;14.60;;;;;;;;;;5092566;28;20283;-62
2022/12/21 00:57:17;;;;;;;23.53;14.90;;;;;;;;;;5092746;28;21012;-62
2022/12/21 00:59:44;;;;;;;27.20;16.73;;;;;;;;;;5092664;28;20540;-62
2022/12/21 01:02:11;;;;;;;23.83;15.47;;;;;;;;;;5093183;28;20600;-62
2022/12/21 01:04:38;;;;;;;27.70;17.63;;;;;;;;;;5092493;28;20534;-62
2022/12/21 01:07:04;;;;;;;24.27;16.97;;;;;;;;;;5092430;28;20573;-62
2022/12/21 01:09:31;;;;;;;22.30;15.10;;;;;;;;;;5092350;28;20539;-62
2022/12/21 01:12:00;;;;;;;26.40;15.73;;;;;;;;;;5092546;28;20238;-62
2022/12/21 01:14:27;;;;;;;23.10;16.00;;;;;;;;;;5092495;28;20457;-62
2022/12/21 01:16:54;;;;;;;23.53;15.60;;;;;;;;;;5092492;28;20463;-62
2022/12/21 01:19:21;;;;;;;24.03;16.77;;;;;;;;;;5092262;28;20940;-62
2022/12/21 01:21:48;;;;;;;31.07;17.90;;;;;;;;;;5092296;28;20985;-62
2022/12/21 01:24:15;;;;;;;22.92;14.57;;;;;;;;;;5092301;28;20537;-61
2022/12/21 01:26:42;;;;;;;30.02;16.48;;;;;;;;;;5092504;28;20286;-62
2022/12/21 01:29:13;;;;;;;24.33;16.17;;;;;;;;;;5092342;28;20621;-62
2022/12/21 01:31:40;;;;;;;25.55;15.43;;;;;;;;;;5092351;28;20453;-62
2022/12/21 01:34:07;;;;;;;22.83;15.20;;;;;;;;;;5092321;28;20278;-62
2022/12/21 01:36:33;;;;;;;26.23;16.73;;;;;;;;;;5092123;28;20453;-62
2022/12/21 01:39:00;;;;;;;23.20;15.53;;;;;;;;;;5092346;28;20544;-62
2022/12/21 01:41:28;;;;;;;24.80;16.50;;;;;;;;;;5092234;28;20456;-62
2022/12/21 01:43:56;;;;;;;28.85;16.90;;;;;;;;;;5092175;28;20536;-62
2022/12/21 01:46:27;;;;;;;27.55;16.92;;;;;;;;;;5092272;28;20311;-62
2022/12/21 01:48:56;;;;;;;26.87;16.50;;;;;;;;;;5095867;28;20191;-62
2022/12/21 01:51:24;;;;;;;27.27;16.90;;;;;;;;;;5095700;28;20460;-62
2022/12/21 01:53:54;;;;;;;29.73;17.00;;;;;;;;;;5095899;28;20545;-62
2022/12/21 01:56:23;;;;;;;22.77;15.50;;;;;;;;;;5095931;28;20790;-62
2022/12/21 01:58:50;;;;;;;26.47;15.97;;;;;;;;;;5095660;28;20541;-62
2022/12/21 02:01:17;;;;;;;27.27;16.47;;;;;;;;;;5095598;28;20447;-62
2022/12/21 02:03:47;;;;;;;24.50;15.40;;;;;;;;;;5095515;28;20957;-62
2022/12/21 02:06:15;;;;;;;23.23;14.93;;;;;;;;;;5095853;28;20544;-62
2022/12/21 02:08:43;;;;;;;27.80;17.30;;;;;;;;;;5095630;28;20507;-62
2022/12/21 02:11:11;;;;;;;24.70;16.33;;;;;;;;;;5095356;28;21012;-62
2022/12/21 02:13:40;;;;;;;28.58;18.05;;;;;;;;;;5095439;28;20487;-62
2022/12/21 02:16:14;;;;;;;30.13;16.67;;;;;;;;;;5095128;28;20200;-62
2022/12/21 02:18:49;;;;;;;26.58;16.65;;;;;;;;;;5095445;28;20560;-62
2022/12/21 02:21:23;;;;;;;26.77;16.08;;;;;;;;;;5095388;28;20184;-62
2022/12/21 02:24:10;;;;;;;28.33;16.47;;;;;;;;;;5095264;28;20207;-62
2022/12/21 02:26:46;;;;;;;22.80;15.60;;;;;;;;;;5095060;28;20547;-62
2022/12/21 02:29:37;;;;;;;28.07;16.50;;;;;;;;;;5095190;28;20186;-62
2022/12/21 02:32:10;;;;;;;26.83;17.20;;;;;;;;;;5094981;28;20540;-62
2022/12/21 02:34:45;;;;;;;28.53;16.30;;;;;;;;;;5095127;28;20537;-62
2022/12/21 02:37:15;;;;;;;25.50;16.53;;;;;;;;;;5094855;28;20481;-62
2022/12/21 02:39:46;;;;;;;26.20;16.17;;;;;;;;;;5095015;28;20885;-62
2022/12/21 02:44:12;;;;;;;28.30;17.40;;;;;;;;;;5094892;28;20527;-62
2022/12/21 02:45:08;;;;;;;25.47;15.60;;;;;;;;;;5094569;28;20441;-62
2022/12/21 02:47:40;;;;;;;26.30;15.87;;;;;;;;;;5094447;28;20493;-62
2022/12/21 02:50:08;;;;;;;25.93;16.83;;;;;;;;;;5094816;28;20446;-62
2022/12/21 02:52:37;;;;;;;25.40;15.77;;;;;;;;;;5094678;28;20457;-62
2022/12/21 02:55:05;;;;;;;25.17;17.80;;;;;;;;;;5094552;28;20545;-62
2022/12/21 02:57:33;;;;;;;23.33;16.23;;;;;;;;;;5094246;28;20538;-62
2022/12/21 03:00:02;;;;;;;21.75;15.45;;;;;;;;;;5094491;28;20499;-62
2022/12/21 03:02:35;;;;;;;25.83;15.80;;;;;;;;;;5094505;28;20198;-62
2022/12/21 03:05:12;;;;;;;24.57;14.83;;;;;;;;;;5094509;28;20549;-62
2022/12/21 03:07:44;;;;;;;27.60;16.77;;;;;;;;;;5094251;28;21031;-62
2022/12/21 03:10:17;;;;;;;25.20;16.40;;;;;;;;;;5094388;28;20934;-62
2022/12/21 03:12:53;;;;;;;27.37;16.80;;;;;;;;;;5094515;28;20448;-62
2022/12/21 03:15:21;;;;;;;24.10;15.53;;;;;;;;;;5094361;28;20832;-62
2022/12/21 03:17:54;;;;;;;26.07;16.23;;;;;;;;;;5094243;28;20825;-62
2022/12/21 03:20:25;;;;;;;24.33;15.50;;;;;;;;;;5094084;28;20445;-62
2022/12/21 03:22:56;;;;;;;25.37;15.40;;;;;;;;;;5094066;28;20845;-62
2022/12/21 03:25:25;;;;;;;22.87;15.37;;;;;;;;;;5094050;28;20545;-62
2022/12/21 03:27:53;;;;;;;27.93;16.50;;;;;;;;;;5093889;28;20492;-62
2022/12/21 03:30:21;;;;;;;26.23;15.37;;;;;;;;;;5093908;28;20482;-62
2022/12/21 03:32:51;;;;;;;26.20;16.75;;;;;;;;;;5093929;28;20454;-61
2022/12/21 03:35:22;;;;;;;25.80;15.17;;;;;;;;;;5093617;28;20193;-62
2022/12/21 03:37:51;;;;;;;23.90;15.50;;;;;;;;;;5093908;28;20537;-62
2022/12/21 03:40:20;;;;;;;26.90;16.20;;;;;;;;;;5093811;28;20540;-62
2022/12/21 03:42:49;;;;;;;26.67;17.00;;;;;;;;;;5093749;28;20558;-62
2022/12/21 03:45:19;;;;;;;20.93;14.47;;;;;;;;;;5093483;28;20965;-62
2022/12/21 03:47:49;;;;;;;26.10;16.30;;;;;;;;;;5093456;28;20600;-62
2022/12/21 03:50:17;;;;;;;28.47;16.33;;;;;;;;;;5093761;28;20454;-61
2022/12/21 03:52:47;;;;;;;25.87;16.67;;;;;;;;;;5093611;28;20882;-62
2022/12/21 03:55:18;;;;;;;21.70;15.10;;;;;;;;;;5093608;28;20544;-62
2022/12/21 03:57:45;;;;;;;23.00;16.20;;;;;;;;;;5093560;28;21024;-61
2022/12/21 04:00:13;;;;;;;25.03;16.27;;;;;;;;;;5093466;28;20536;-62
2022/12/21 04:02:43;;;;;;;23.30;15.10;;;;;;;;;;5093240;28;20457;-62
2022/12/21 04:05:12;;;;;;;23.50;14.93;;;;;;;;;;5093729;28;20547;-62
2022/12/21 04:07:40;;;;;;;23.50;15.77;;;;;;;;;;5093484;28;20480;-62
2022/12/21 04:10:09;;;;;;;23.83;15.20;;;;;;;;;;5093052;28;20445;-62
2022/12/21 04:12:36;;;;;;;21.97;14.93;;;;;;;;;;5093333;28;20442;-62
2022/12/21 04:15:03;;;;;;;23.97;15.17;;;;;;;;;;5093013;28;20992;-62
2022/12/21 04:17:30;;;;;;;22.30;15.23;;;;;;;;;;5093414;28;20798;-62
2022/12/21 04:19:59;;;;;;;21.03;13.90;;;;;;;;;;5093238;28;20877;-62
2022/12/21 04:28:09;;;;;;;25.70;16.13;;;;;;;;;;5092935;28;20554;-61
2022/12/21 04:30:37;;;;;;;25.60;16.20;;;;;;;;;;5093064;28;20478;-62
2022/12/21 04:33:04;;;;;;;20.52;14.40;;;;;;;;;;5092805;28;20886;-62
2022/12/21 04:35:31;;;;;;;20.30;14.60;;;;;;;;;;5092775;28;20197;-62
2022/12/21 04:37:57;;;;;;;24.53;17.47;;;;;;;;;;5092695;28;20490;-62
2022/12/21 04:40:24;;;;;;;23.00;16.00;;;;;;;;;;5092873;28;20497;-62
2022/12/21 04:42:51;;;;;;;21.63;15.53;;;;;;;;;;5092748;28;20543;-62
2022/12/21 04:45:19;;;;;;;26.20;15.87;;;;;;;;;;5092587;28;20937;-65
2022/12/21 04:47:46;;;;;;;24.00;17.03;;;;;;;;;;5092664;28;20575;-62
2022/12/21 04:50:13;;;;;;;24.20;15.37;;;;;;;;;;5092593;28;20595;-62
2022/12/21 04:52:40;;;;;;;20.57;13.37;;;;;;;;;;5092556;28;20809;-62
2022/12/21 04:55:08;;;;;;;23.70;15.07;;;;;;;;;;5092753;28;20453;-62
2022/12/21 04:57:34;;;;;;;26.90;15.50;;;;;;;;;;5092589;28;20461;-62
2022/12/21 05:00:01;;;;;;;25.93;15.80;;;;;;;;;;5092618;28;20459;-62
2022/12/21 05:02:30;;;;;;;27.43;16.63;;;;;;;;;;5092510;28;20458;-62
2022/12/21 05:04:57;;;;;;;21.80;16.23;;;;;;;;;;5092420;28;20454;-61
2022/12/21 05:07:24;;;;;;;25.23;14.80;;;;;;;;;;5092363;28;20893;-62
2022/12/21 05:09:50;;;;;;;21.90;15.30;;;;;;;;;;5092607;28;20497;-62
2022/12/21 05:12:17;;;;;;;23.93;14.90;;;;;;;;;;5092518;28;20449;-62
2022/12/21 05:14:44;;;;;;;26.90;16.87;;;;;;;;;;5092504;28;20541;-62
2022/12/21 05:17:11;;;;;;;21.30;14.73;;;;;;;;;;5092373;28;20546;-62
2022/12/21 05:19:40;;;;;;;22.73;15.50;;;;;;;;;;5092265;28;20533;-62
2022/12/21 05:22:06;;;;;;;26.93;16.27;;;;;;;;;;5093965;28;20884;-62
2022/12/21 05:24:33;;;;;;;25.40;15.13;;;;;;;;;;5096230;28;20536;-62
2022/12/21 05:27:00;;;;;;;23.13;15.90;;;;;;;;;;5096394;28;20542;-62
2022/12/21 05:29:27;;;;;;;24.60;15.60;;;;;;;;;;5096243;28;20571;-62
2022/12/21 05:31:54;;;;;;;25.40;15.83;;;;;;;;;;5096119;28;20540;-62
2022/12/21 05:34:21;;;;;;;24.03;14.50;;;;;;;;;;5096039;28;20926;-62
2022/12/21 05:36:49;;;;;;;20.87;14.20;;;;;;;;;;5096218;28;20881;-62
2022/12/21 05:39:16;;;;;;;22.60;14.87;;;;;;;;;;5096052;28;20450;-62
2022/12/21 05:41:43;;;;;;;26.57;16.20;;;;;;;;;;5095970;28;20802;-62
2022/12/21 05:44:10;;;;;;;25.47;15.30;;;;;;;;;;5095950;28;20537;-61
2022/12/21 05:46:37;;;;;;;24.23;15.73;;;;;;;;;;5095543;28;20509;-61
2022/12/21 05:49:04;;;;;;;24.33;15.60;;;;;;;;;;5095837;28;20485;-62
2022/12/21 05:51:31;;;;;;;24.20;15.00;;;;;;;;;;5095931;28;20450;-62
2022/12/21 05:53:59;;;;;;;24.30;16.10;;;;;;;;;;5095749;28;20452;-62
2022/12/21 05:56:26;;;;;;;28.50;16.70;;;;;;;;;;5095755;28;20482;-61
2022/12/21 05:58:53;;;;;;;29.80;16.93;;;;;;;;;;5095494;28;20442;-62
2022/12/21 06:01:20;;;;;;;24.33;15.30;;;;;;;;;;5095473;28;20536;-62
2022/12/21 06:03:47;;;;;;;26.80;16.37;;;;;;;;;;5095649;28;20446;-62
2022/12/21 06:06:15;;;;;;;22.33;15.73;;;;;;;;;;5095628;28;20504;-62
2022/12/21 06:08:43;;;;;;;23.37;15.90;;;;;;;;;;5095185;28;20492;-62
2022/12/21 06:11:12;;;;;;;29.77;15.80;;;;;;;;;;5095216;28;20814;-62
2022/12/21 06:13:39;;;;;;;29.10;17.20;;;;;;;;;;5095260;28;20851;-62
2022/12/21 06:16:07;;;;;;;24.57;16.60;;;;;;;;;;5095122;28;20459;-62
2022/12/21 06:18:34;;;;;;;26.00;16.60;;;;;;;;;;5095366;28;20813;-62
2022/12/21 06:21:01;;;;;;;23.90;16.90;;;;;;;;;;5095110;28;20490;-61
2022/12/21 06:23:28;;;;;;;26.90;17.07;;;;;;;;;;5095280;28;20457;-60
2022/12/21 06:25:56;;;;;;;25.47;16.17;;;;;;;;;;5095146;28;20482;-61
2022/12/21 06:28:24;;;;;;;29.10;16.60;;;;;;;;;;5094883;28;20485;-62
2022/12/21 06:30:51;;;;;;;26.03;15.73;;;;;;;;;;5095228;28;20450;-61
2022/12/21 06:33:19;;;;;;;22.10;16.27;;;;;;;;;;5094601;28;20482;-61
2022/12/21 06:35:46;;;;;;;26.73;17.07;;;;;;;;;;5095086;28;20445;-61
2022/12/21 06:38:13;;;;;;;25.67;18.00;;;;;;;;;;5094959;28;20538;-62
2022/12/21 06:40:40;;;;;;;22.33;15.63;;;;;;;;;;5094806;28;20532;-61
2022/12/21 06:43:07;;;;;;;22.80;16.87;;;;;;;;;;5094708;28;20806;-61
2022/12/21 06:45:36;;;;;;;20.90;15.60;;;;;;;;;;5094579;28;20546;-62
2022/12/21 06:48:04;;;;;;;23.40;15.93;;;;;;;;;;5094498;28;20815;-62
2022/12/21 06:50:31;;;;;;;26.60;17.67;;;;;;;;;;5094480;28;20454;-62
2022/12/21 06:52:58;;;;;;;25.57;15.57;;;;;;;;;;5094329;28;20457;-62
2022/12/21 06:55:25;;;;;;;27.30;17.40;;;;;;;;;;5094034;28;20456;-61
2022/12/21 06:57:51;;;;;;;25.40;16.20;;;;;;;;;;5094541;28;20451;-61
2022/12/21 07:00:19;;;;;;;24.20;16.13;;;;;;;;;;5094249;28;20447;-61
2022/12/21 07:02:47;;;;;;;28.20;17.40;;;;;;;;;;5094211;28;20831;-61
2022/12/21 07:05:14;;;;;;;27.23;17.57;;;;;;;;;;5094128;28;20539;-61
2022/12/21 07:07:41;;;;;;;29.73;18.27;;;;;;;;;;5094493;28;20534;-62
2022/12/21 07:10:08;;;;;;;25.83;16.60;;;;;;;;;;5094405;28;20482;-62
2022/12/21 07:12:35;;;;;;;24.90;16.20;;;;;;;;;;5094599;28;20539;-61
2022/12/21 07:15:02;;;;;;;26.73;18.00;;;;;;;;;;5094470;28;20789;-61
2022/12/21 07:17:29;;;;;;;25.03;18.00;;;;;;;;;;5094375;28;20533;-62
2022/12/21 07:19:57;;;;;;;31.42;20.75;;;;;;;;;;5093480;28;20543;-62
2022/12/21 07:22:24;;;;;;;25.70;17.43;;;;;;;;;;5094117;28;20195;-62
2022/12/21 07:24:51;;;;;;;25.20;17.37;;;;;;;;;;5094222;28;20776;-61
2022/12/21 07:27:18;;;;;;;25.52;18.40;;;;;;;;;;5094169;28;20908;-61
2022/12/21 07:29:45;;;;;;;22.53;15.87;;;;;;;;;;5094211;28;20226;-62
2022/12/21 07:32:12;;;;;;;24.43;16.17;;;;;;;;;;5094064;28;20446;-61
2022/12/21 07:34:39;;;;;;;23.23;15.87;;;;;;;;;;5094115;28;20807;-61
2022/12/21 07:37:07;;;;;;;28.63;17.57;;;;;;;;;;5094474;28;20546;-61
2022/12/21 07:39:34;;;;;;;24.07;15.53;;;;;;;;;;5094196;28;20553;-61
2022/12/21 07:42:01;;;;;;;20.97;15.17;;;;;;;;;;5093977;28;20441;-61
2022/12/21 07:44:28;;;;;;;24.57;16.27;;;;;;;;;;5093086;28;20784;-62
2022/12/21 07:46:55;;;;;;;25.60;16.50;;;;;;;;;;5093919;28;20469;-62
2022/12/21 07:49:22;;;;;;;23.60;16.03;;;;;;;;;;5093535;28;20486;-62
2022/12/21 07:51:49;;;;;;;24.30;17.20;;;;;;;;;;5093509;28;20463;-61
2022/12/21 07:54:17;;;;;;;23.40;16.33;;;;;;;;;;5093811;28;20449;-62
2022/12/21 07:56:44;;;;;;;24.60;17.00;;;;;;;;;;5093781;28;20454;-61
2022/12/21 07:59:11;;;;;;;22.53;15.73;;;;;;;;;;5093643;28;20484;-61
2022/12/21 08:01:38;;;;;;;21.83;14.97;;;;;;;;;;5093501;28;20537;-61
2022/12/21 08:04:07;;;;;;;22.37;15.67;;;;;;;;;;5093429;28;20964;-61
2022/12/21 08:06:34;;;;;;;21.87;15.40;;;;;;;;;;5093610;28;20453;-61
2022/12/21 08:09:01;;;;;;;23.03;16.03;;;;;;;;;;5093583;28;20482;-61
2022/12/21 08:11:29;;;;;;;27.50;17.67;;;;;;;;;;5093507;28;20798;-61
2022/12/21 08:13:57;;;;;;;26.53;16.60;;;;;;;;;;5093399;28;20479;-61
2022/12/21 08:16:24;;;;;;;21.10;15.83;;;;;;;;;;5093286;28;20866;-61
2022/12/21 08:18:51;;;;;;;21.00;14.93;;;;;;;;;;5093167;28;20457;-61
2022/12/21 08:21:18;;;;;;;23.70;16.03;;;;;;;;;;5093268;28;20542;-61
2022/12/21 08:23:45;;;;;;;21.90;16.20;;;;;;;;;;5092943;28;20544;-62
2022/12/21 08:26:13;;;;;;;21.10;15.60;;;;;;;;;;5093307;28;20458;-62
2022/12/21 08:28:42;;;;;;;23.97;15.80;;;;;;;;;;5093245;28;20472;-75
2022/12/21 08:31:10;;;;;;;22.50;17.03;;;;;;;;;;5092986;28;20447;-68
2022/12/21 08:33:36;;;;;;;25.07;16.07;;;;;;;;;;5092857;28;20546;-71
2022/12/21 08:36:04;;;;;;;24.63;17.53;;;;;;;;;;5093115;28;20453;-74
2022/12/21 08:38:31;;;;;;;22.30;16.77;;;;;;;;;;5093049;28;20450;-65
2022/12/21 08:41:02;;;;;;;20.43;15.63;;;;;;;;;;5093150;28;20851;-65
2022/12/21 08:43:29;;;;;;;21.20;15.60;;;;;;;;;;5092868;28;20456;-67
2022/12/21 08:45:57;;;;;;;21.37;15.40;;;;;;;;;;5092700;28;21057;-70
2022/12/21 08:48:24;;;;;;;22.53;16.13;;;;;;;;;;5102439;28;20447;-62
2022/12/21 08:50:51;;;;;;;22.90;15.70;;;;;;;;;;5101644;28;20871;-61
2022/12/21 08:53:18;;;;;;;25.50;16.33;;;;;;;;;;5107881;28;20529;-65
2022/12/21 08:55:46;;;;;;;22.90;16.03;;;;;;;;;;5113510;28;20453;-60
2022/12/21 08:58:13;;;;;;;23.50;17.47;;;;;;;;;;5117454;28;20450;-65
2022/12/21 09:00:40;;;;;;;20.40;14.70;;;;;;;;;;5117720;28;20475;-64
2022/12/21 09:03:08;;;;;;;20.10;15.37;;;;;;;;;;5117508;28;20499;-68
2022/12/21 09:05:35;;;;;;;23.73;16.73;;;;;;;;;;5117356;28;20536;-61
2022/12/21 09:08:02;;;;;;;20.03;14.63;;;;;;;;;;5096369;28;20451;-60
2022/12/21 09:10:30;;;;;;;23.20;15.93;;;;;;;;;;5101858;28;20553;-61
2022/12/21 09:12:57;;;;;;;24.33;15.83;;;;;;;;;;5110334;28;20525;-61
2022/12/21 09:15:24;;;;;;;22.30;15.50;;;;;;;;;;5110991;28;20534;-64
2022/12/21 09:17:51;;;;;;;20.73;16.00;;;;;;;;;;5105857;28;20492;-63
2022/12/21 09:20:19;;;;;;;19.77;14.87;;;;;;;;;;5104488;28;20445;-62
2022/12/21 09:22:46;;;;;;;25.93;17.47;;;;;;;;;;5100302;28;20534;-67
2022/12/21 09:25:13;;;;;;;21.80;16.50;;;;;;;;;;5103554;28;20446;-62
2022/12/21 09:27:40;;;;;;;21.07;16.50;;;;;;;;;;5102220;28;20529;-62
2022/12/21 09:30:07;;;;;;;21.17;15.50;;;;;;;;;;5101482;28;20485;-66
2022/12/21 09:32:34;;;;;;;23.50;16.50;;;;;;;;;;5104415;28;20473;-72
2022/12/21 09:35:01;;;;;;;21.23;15.80;;;;;;;;;;5113856;28;20441;-65
2022/12/21 09:37:30;;;;;;;24.43;14.90;;;;;;;;;;5110611;28;20866;-68
2022/12/21 09:39:57;;;;;;;20.17;15.00;;;;;;;;;;5096032;28;20447;-66
2022/12/21 09:42:31;;;;;;;23.17;15.27;;;;;;;;;;5101358;28;20522;-62
2022/12/21 09:45:03;;;;;;;21.30;14.53;;;;;;;;;;5096226;28;20545;-69
2022/12/21 09:47:34;;;;;;;23.53;16.60;;;;;;;;;;5095908;28;20558;-70
2022/12/21 09:50:02;;;;;;;18.60;15.00;;;;;;;;;;5095623;28;20482;-69
2022/12/21 09:52:33;;;;;;;21.40;16.30;;;;;;;;;;5095807;28;20538;-65
2022/12/21 09:55:02;;;;;;;22.43;15.90;;;;;;;;;;5096257;28;20451;-71
2022/12/21 09:57:31;;;;;;;19.33;13.83;;;;;;;;;;5101230;28;20526;-65
2022/12/21 09:59:58;;;;;;;20.80;15.43;;;;;;;;;;5097188;28;20443;-63
2022/12/21 10:02:33;;;;;;;25.40;17.20;;;;;;;;;;5095910;28;20523;-71
2022/12/21 10:05:06;;;;;;;20.70;14.70;;;;;;;;;;5095700;28;20446;-62
2022/12/21 10:07:49;;;;;;;18.63;14.70;;;;;;;;;;5096210;28;20457;-61
2022/12/21 10:10:19;;;;;;;21.97;16.83;;;;;;;;;;5116059;28;20478;-62
2022/12/21 10:12:49;;;;;;;18.77;14.47;;;;;;;;;;5115969;28;20450;-70
2022/12/21 10:15:23;;;;;;;21.90;15.37;;;;;;;;;;5115827;28;20448;-57
2022/12/21 10:17:54;;;;;;;20.70;13.93;;;;;;;;;;5116415;28;20455;-61
2022/12/21 10:20:35;;;;;;;20.67;14.90;;;;;;;;;;5116147;28;20864;-69
2022/12/21 10:23:05;;;;;;;18.47;15.13;;;;;;;;;;5116157;28;20945;-64
2022/12/21 10:25:38;;;;;;;18.23;13.90;;;;;;;;;;5114212;28;20537;-71
2022/12/21 10:28:10;;;;;;;17.77;15.23;;;;;;;;;;5095089;28;20546;-61
2022/12/21 10:30:40;;;;;;;19.80;14.30;;;;;;;;;;5095457;28;20488;-64
2022/12/21 10:33:09;;;;;;;17.67;13.73;;;;;;;;;;5095425;28;20906;-66
2022/12/21 10:35:38;;;;;;;20.07;14.80;;;;;;;;;;5095189;28;20538;-64
2022/12/21 10:38:13;;;;;;;19.83;14.23;;;;;;;;;;5095040;28;20450;-64
2022/12/21 10:40:40;;;;;;;22.10;15.70;;;;;;;;;;5094946;28;20468;-61
2022/12/21 10:43:07;;;;;;;20.50;15.23;;;;;;;;;;5095096;28;20453;-63
2022/12/21 10:45:34;;;;;;;19.93;14.13;;;;;;;;;;5095138;28;20451;-62
2022/12/21 10:48:01;;;;;;;20.10;15.50;;;;;;;;;;5095179;28;20451;-61
2022/12/21 10:50:29;;;;;;;19.73;14.77;;;;;;;;;;5094851;28;20985;-60
2022/12/21 10:52:57;;;;;;;21.50;14.60;;;;;;;;;;5099947;28;20949;-65
2022/12/21 10:55:32;;;;;;;17.50;13.77;;;;;;;;;;5095221;28;20457;-63
2022/12/21 10:58:04;;;;;;;20.37;14.90;;;;;;;;;;5094788;28;20450;-63
2022/12/21 11:00:32;;;;;;;19.03;13.93;;;;;;;;;;5102558;28;20608;-64
2022/12/21 11:03:00;;;;;;;18.80;14.10;;;;;;;;;;5111587;28;20533;-67
2022/12/21 11:05:29;;;;;;;18.63;14.50;;;;;;;;;;5114550;28;20438;-60
2022/12/21 11:08:12;;;;;;;16.70;13.27;;;;;;;;;;5115114;28;20537;-60
2022/12/21 11:10:41;;;;;;;17.40;13.17;;;;;;;;;;5114893;28;20530;-60
2022/12/21 11:13:08;;;;;;;18.80;14.07;;;;;;;;;;5114881;28;20456;-60
2022/12/21 11:15:35;;;;;;;18.13;14.00;;;;;;;;;;5114977;28;20543;-61
2022/12/21 11:18:02;;;;;;;17.03;14.40;;;;;;;;;;5114280;28;20824;-62
2022/12/21 11:20:29;;;;;;;20.30;14.23;;;;;;;;;;5114934;28;20882;-67
2022/12/21 11:22:57;;;;;;;20.17;15.50;;;;;;;;;;5114392;28;20522;-64
2022/12/21 11:25:25;;;;;;;17.20;13.47;;;;;;;;;;5114704;28;20882;-66
2022/12/21 11:27:56;;;;;;;16.60;13.33;;;;;;;;;;5114566;28;20892;-63
2022/12/21 11:30:23;;;;;;;15.93;13.83;;;;;;;;;;5114797;28;20478;-63
2022/12/21 11:32:52;;;;;;;17.03;12.40;;;;;;;;;;5114612;28;20446;-62
2022/12/21 11:35:19;;;;;;;21.87;13.87;;;;;;;;;;5114320;28;20536;-62
2022/12/21 11:37:47;;;;;;;19.40;13.30;;;;;;;;;;5114313;28;20541;-62
2022/12/21 11:40:16;;;;;;;16.83;13.00;;;;;;;;;;5114337;28;20446;-63
2022/12/21 11:42:51;;;;;;;18.10;13.57;;;;;;;;;;5114260;28;20514;-62
2022/12/21 11:45:22;;;;;;;17.43;12.87;;;;;;;;;;5114219;28;20456;-63
2022/12/21 11:47:58;;;;;;;17.67;14.63;;;;;;;;;;5114271;28;20445;-64
2022/12/21 11:50:35;;;;;;;15.47;13.40;;;;;;;;;;5114131;28;20968;-62
2022/12/21 11:53:08;;;;;;;16.27;12.87;;;;;;;;;;5114095;28;20456;-62
2022/12/21 11:55:37;;;;;;;18.30;13.17;;;;;;;;;;5114049;28;20540;-65
2022/12/21 11:58:08;;;;;;;20.00;13.17;;;;;;;;;;5113930;28;20916;-60
2022/12/21 12:00:40;;;;;;;16.20;13.07;;;;;;;;;;5113981;28;20457;-67
2022/12/21 12:03:25;;;;;;;18.10;13.17;;;;;;;;;;5113138;28;20836;-67
2022/12/21 12:05:59;;;;;;;18.60;13.67;;;;;;;;;;5113494;28;20442;-66
2022/12/21 12:08:34;;;;;;;15.67;12.83;;;;;;;;;;5113859;28;21035;-67
2022/12/21 12:11:12;;;;;;;18.90;14.23;;;;;;;;;;5113862;28;20575;-64
2022/12/21 12:13:46;;;;;;;18.47;15.13;;;;;;;;;;5113669;28;20461;-66
2022/12/21 12:16:18;;;;;;;17.27;13.87;;;;;;;;;;5113599;28;20535;-65
2022/12/21 12:18:51;;;;;;;14.57;12.67;;;;;;;;;;5113753;28;20887;-65
2022/12/21 12:21:32;;;;;;;14.80;12.30;;;;;;;;;;5113959;28;20453;-60
2022/12/21 12:24:10;;;;;;;16.60;12.83;;;;;;;;;;5113542;28;20534;-64
2022/12/21 12:26:40;;;;;;;15.40;12.40;;;;;;;;;;5110045;28;20447;-63
2022/12/21 12:29:15;;;;;;;17.00;12.57;;;;;;;;;;5095934;28;20454;-65
2022/12/21 12:31:50;;;;;;;18.70;13.00;;;;;;;;;;5092725;28;20841;-63
2022/12/21 12:34:26;;;;;;;16.30;13.03;;;;;;;;;;5093191;28;20451;-62
2022/12/21 12:36:59;;;;;;;15.53;12.40;;;;;;;;;;5093093;28;20457;-62
2022/12/21 12:39:29;;;;;;;12.87;11.50;;;;;;;;;;5093240;28;20482;-63
2022/12/21 12:42:00;;;;;;;16.43;13.47;;;;;;;;;;5092850;28;20546;-69
2022/12/21 12:44:33;;;;;;;16.13;12.67;;;;;;;;;;5093051;28;20534;-68
2022/12/21 12:47:06;;;;;;;13.23;11.43;;;;;;;;;;5092952;28;20478;-70
2022/12/21 12:49:42;;;;;;;17.60;11.90;;;;;;;;;;5093043;28;20530;-61
2022/12/21 12:52:16;;;;;;;16.40;11.43;;;;;;;;;;5092510;28;20541;-62
2022/12/21 12:54:50;;;;;;;15.20;12.53;;;;;;;;;;5093142;28;20533;-62
2022/12/21 12:57:22;;;;;;;14.87;12.77;;;;;;;;;;5092790;28;20890;-62
2022/12/21 12:59:52;;;;;;;14.70;12.20;;;;;;;;;;5096256;28;20439;-63
2022/12/21 13:02:26;;;;;;;14.17;12.60;;;;;;;;;;5109955;28;20441;-67
2022/12/21 13:05:03;;;;;;;15.83;12.47;;;;;;;;;;5113234;28;20446;-67
2022/12/21 13:07:36;;;;;;;12.80;11.40;;;;;;;;;;5113025;28;21012;-64
2022/12/21 13:10:08;;;;;;;18.90;12.97;;;;;;;;;;5112985;28;20470;-66
2022/12/21 13:12:41;;;;;;;16.03;11.20;;;;;;;;;;5113128;28;20450;-58
2022/12/21 13:15:13;;;;;;;16.70;11.93;;;;;;;;;;5113274;28;20473;-60
2022/12/21 13:17:45;;;;;;;16.90;13.00;;;;;;;;;;5112969;28;20774;-67
2022/12/21 13:20:16;;;;;;;14.63;11.83;;;;;;;;;;5113159;28;20450;-59
2022/12/21 13:22:44;;;;;;;14.90;11.77;;;;;;;;;;5112927;28;20507;-64
2022/12/21 13:25:16;;;;;;;17.10;13.10;;;;;;;;;;5113154;28;20634;-60
2022/12/21 13:27:44;;;;;;;14.67;12.70;;;;;;;;;;5113248;28;20473;-60
2022/12/21 13:30:14;;;;;;;13.93;11.63;;;;;;;;;;5112975;28;20470;-60
2022/12/21 13:32:45;;;;;;;14.07;10.90;;;;;;;;;;5112752;28;20537;-61
2022/12/21 13:35:18;;;;;;;15.07;12.27;;;;;;;;;;5112792;28;20474;-59
2022/12/21 13:37:47;;;;;;;13.63;11.90;;;;;;;;;;5112496;28;20453;-64
2022/12/21 13:40:16;;;;;;;12.93;11.60;;;;;;;;;;5112843;28;20549;-63
2022/12/21 13:42:47;;;;;;;14.50;12.30;;;;;;;;;;5113244;28;20552;-66
2022/12/21 13:45:18;;;;;;;17.80;13.30;;;;;;;;;;5104896;28;20440;-68
2022/12/21 13:47:46;;;;;;;12.93;11.60;;;;;;;;;;5106085;28;20447;-73
2022/12/21 13:50:21;;;;;;;14.23;11.90;;;;;;;;;;5116293;28;20842;-73
2022/12/21 13:52:52;;;;;;;15.97;11.87;;;;;;;;;;5116523;28;20540;-68
2022/12/21 13:55:30;;;;;;;11.50;9.83;;;;;;;;;;5116494;28;20538;-66
2022/12/21 13:58:03;;;;;;;12.40;11.10;;;;;;;;;;5107427;28;20852;-63
2022/12/21 14:00:34;;;;;;;15.07;11.27;;;;;;;;;;5102059;28;20541;-66
2022/12/21 14:03:07;;;;;;;14.30;10.50;;;;;;;;;;5104762;28;20452;-65
2022/12/21 14:05:39;;;;;;;10.43;9.07;;;;;;;;;;5099781;28;20799;-63
2022/12/21 14:08:27;;;;;;;11.10;10.00;;;;;;;;;;5098560;28;20454;-66
2022/12/21 14:11:06;;;;;;;10.33;9.43;;;;;;;;;;5095904;28;20891;-65
2022/12/21 14:14:06;;;;;;;12.77;10.10;;;;;;;;;;5096031;28;20538;-63
2022/12/21 14:16:33;;;;;;;9.87;8.90;;;;;;;;;;4993676;28;20455;-63
2022/12/21 14:19:03;;;;;;;11.97;9.97;;;;;;;;;;4993806;28;20563;-60
2022/12/21 14:21:30;;;;;;;14.30;11.17;;;;;;;;;;5046618;28;20450;-63
2022/12/21 14:24:00;;;;;;;10.60;9.50;;;;;;;;;;5115566;28;20478;-62
2022/12/21 14:26:33;;;;;;;11.07;9.87;;;;;;;;;;5115192;28;20477;-61
2022/12/21 14:29:03;;;;;;;11.10;9.20;;;;;;;;;;5115649;28;20960;-60
2022/12/21 14:31:30;;;;;;;9.37;8.47;;;;;;;;;;5114717;28;20565;-61
2022/12/21 14:33:58;;;;;;;10.53;8.90;;;;;;;;;;5114200;28;20885;-68
2022/12/21 14:36:28;;;;;;;10.83;9.70;;;;;;;;;;5097886;28;20443;-66